sensor_id;sensor_type;location;lat;lon;timestamp;P1;durP1;ratioP1;P2;durP2;ratioP2
18661;SDS011;61528;49.456;11.098;2023-03-03T00:01:15;26.37;;;14.93;;
18661;SDS011;61528;49.456;11.098;2023-03-03T00:03:42;26.17;;;16.43;;
18661;SDS011;61528;49.456;11.098;2023-03-03T00:06:09;25.10;;;15.50;;
18661;SDS011;61528;49.456;11.098;2023-03-03T00:08:36;27.20;;;16.57;;
18661;SDS011;61528;49.456;11.098;2023-03-03T00:11:03;26.63;;;15.77;;
18661;SDS011;61528;49.456;11.098;2023-03-03T00:13:31;27.27;;;15.80;;
18661;SDS011;61528;49.456;11.098;2023-03-03T00:18:56;27.43;;;16.70;;
18661;SDS011;61528;49.456;11.098;2023-03-03T00:21:28;25.53;;;14.83;;
18661;SDS011;61528;49.456;11.098;2023-03-03T00:26:42;25.47;;;15.10;;
18661;SDS011;61528;49.456;11.098;2023-03-03T00:31:51;25.63;;;15.30;;
18661;SDS011;61528;49.456;11.098;2023-03-03T00:36:44;22.83;;;14.17;;
18661;SDS011;61528;49.456;11.098;2023-03-03T00:39:18;25.63;;;14.73;;
18661;SDS011;61528;49.456;11.098;2023-03-03T00:41:47;24.43;;;14.93;;
18661;SDS011;61528;49.456;11.098;2023-03-03T00:44:59;26.87;;;16.03;;
18661;SDS011;61528;49.456;11.098;2023-03-03T00:49:41;23.97;;;14.93;;
18661;SDS011;61528;49.456;11.098;2023-03-03T00:52:15;26.37;;;16.37;;
18661;SDS011;61528;49.456;11.098;2023-03-03T00:54:42;22.83;;;15.13;;
18661;SDS011;61528;49.456;11.098;2023-03-03T00:57:08;24.37;;;15.23;;
18661;SDS011;61528;49.456;11.098;2023-03-03T00:59:36;24.90;;;15.63;;
18661;SDS011;61528;49.456;11.098;2023-03-03T01:02:03;24.80;;;15.20;;
18661;SDS011;61528;49.456;11.098;2023-03-03T01:04:31;23.80;;;15.47;;
18661;SDS011;61528;49.456;11.098;2023-03-03T01:06:57;27.07;;;16.07;;
18661;SDS011;61528;49.456;11.098;2023-03-03T01:09:23;25.30;;;15.33;;
18661;SDS011;61528;49.456;11.098;2023-03-03T01:11:49;25.37;;;15.63;;
18661;SDS011;61528;49.456;11.098;2023-03-03T01:14:16;26.13;;;15.80;;
18661;SDS011;61528;49.456;11.098;2023-03-03T01:16:43;23.97;;;14.73;;
18661;SDS011;61528;49.456;11.098;2023-03-03T01:19:09;24.90;;;14.60;;
18661;SDS011;61528;49.456;11.098;2023-03-03T01:21:36;25.93;;;15.43;;
18661;SDS011;61528;49.456;11.098;2023-03-03T01:24:02;25.03;;;15.00;;
18661;SDS011;61528;49.456;11.098;2023-03-03T01:26:29;21.17;;;14.00;;
18661;SDS011;61528;49.456;11.098;2023-03-03T01:28:55;23.93;;;15.87;;
18661;SDS011;61528;49.456;11.098;2023-03-03T01:31:21;26.53;;;14.97;;
18661;SDS011;61528;49.456;11.098;2023-03-03T01:33:48;24.00;;;14.53;;
18661;SDS011;61528;49.456;11.098;2023-03-03T01:36:22;23.23;;;14.63;;
18661;SDS011;61528;49.456;11.098;2023-03-03T01:38:48;23.60;;;15.50;;
18661;SDS011;61528;49.456;11.098;2023-03-03T01:41:15;23.57;;;14.47;;
18661;SDS011;61528;49.456;11.098;2023-03-03T01:43:43;22.70;;;13.80;;
18661;SDS011;61528;49.456;11.098;2023-03-03T01:48:45;23.67;;;13.87;;
18661;SDS011;61528;49.456;11.098;2023-03-03T01:57:02;24.70;;;13.97;;
18661;SDS011;61528;49.456;11.098;2023-03-03T01:59:33;21.63;;;14.17;;
18661;SDS011;61528;49.456;11.098;2023-03-03T02:02:02;21.97;;;13.53;;
18661;SDS011;61528;49.456;11.098;2023-03-03T02:04:29;25.17;;;14.73;;
18661;SDS011;61528;49.456;11.098;2023-03-03T02:06:58;23.97;;;13.67;;
18661;SDS011;61528;49.456;11.098;2023-03-03T02:12:11;19.80;;;12.80;;
18661;SDS011;61528;49.456;11.098;2023-03-03T02:14:39;22.70;;;14.17;;
18661;SDS011;61528;49.456;11.098;2023-03-03T02:17:05;22.77;;;14.17;;
18661;SDS011;61528;49.456;11.098;2023-03-03T02:19:34;22.83;;;13.60;;
18661;SDS011;61528;49.456;11.098;2023-03-03T02:22:04;22.87;;;13.63;;
18661;SDS011;61528;49.456;11.098;2023-03-03T02:24:34;22.90;;;14.40;;
18661;SDS011;61528;49.456;11.098;2023-03-03T02:27:01;24.97;;;14.27;;
18661;SDS011;61528;49.456;11.098;2023-03-03T02:29:28;22.83;;;14.47;;
18661;SDS011;61528;49.456;11.098;2023-03-03T02:31:54;22.80;;;14.30;;
18661;SDS011;61528;49.456;11.098;2023-03-03T02:34:21;23.47;;;14.57;;
18661;SDS011;61528;49.456;11.098;2023-03-03T02:36:47;23.30;;;13.87;;
18661;SDS011;61528;49.456;11.098;2023-03-03T02:39:15;21.43;;;14.07;;
18661;SDS011;61528;49.456;11.098;2023-03-03T02:44:12;25.50;;;14.60;;
18661;SDS011;61528;49.456;11.098;2023-03-03T02:46:41;21.83;;;13.33;;
18661;SDS011;61528;49.456;11.098;2023-03-03T02:49:08;24.33;;;14.37;;
18661;SDS011;61528;49.456;11.098;2023-03-03T02:51:35;21.40;;;13.70;;
18661;SDS011;61528;49.456;11.098;2023-03-03T02:54:02;23.63;;;14.23;;
18661;SDS011;61528;49.456;11.098;2023-03-03T02:56:28;27.07;;;14.23;;
18661;SDS011;61528;49.456;11.098;2023-03-03T02:58:55;20.23;;;13.37;;
18661;SDS011;61528;49.456;11.098;2023-03-03T03:01:21;22.97;;;13.03;;
18661;SDS011;61528;49.456;11.098;2023-03-03T03:03:48;26.13;;;14.67;;
18661;SDS011;61528;49.456;11.098;2023-03-03T03:06:14;25.63;;;14.47;;
18661;SDS011;61528;49.456;11.098;2023-03-03T03:08:40;27.30;;;13.97;;
18661;SDS011;61528;49.456;11.098;2023-03-03T03:11:06;24.27;;;13.93;;
18661;SDS011;61528;49.456;11.098;2023-03-03T03:13:33;24.10;;;13.57;;
18661;SDS011;61528;49.456;11.098;2023-03-03T03:15:59;23.43;;;13.87;;
18661;SDS011;61528;49.456;11.098;2023-03-03T03:18:26;23.20;;;13.97;;
18661;SDS011;61528;49.456;11.098;2023-03-03T03:20:52;24.63;;;14.10;;
18661;SDS011;61528;49.456;11.098;2023-03-03T03:23:19;27.87;;;15.43;;
18661;SDS011;61528;49.456;11.098;2023-03-03T03:25:48;25.23;;;14.50;;
18661;SDS011;61528;49.456;11.098;2023-03-03T03:28:15;22.40;;;13.93;;
18661;SDS011;61528;49.456;11.098;2023-03-03T03:30:42;23.63;;;14.50;;
18661;SDS011;61528;49.456;11.098;2023-03-03T03:33:10;26.43;;;15.10;;
18661;SDS011;61528;49.456;11.098;2023-03-03T03:35:36;26.20;;;14.43;;
18661;SDS011;61528;49.456;11.098;2023-03-03T03:38:04;24.10;;;14.27;;
18661;SDS011;61528;49.456;11.098;2023-03-03T03:40:30;27.93;;;16.20;;
18661;SDS011;61528;49.456;11.098;2023-03-03T03:42:57;29.37;;;15.67;;
18661;SDS011;61528;49.456;11.098;2023-03-03T03:45:23;24.60;;;14.53;;
18661;SDS011;61528;49.456;11.098;2023-03-03T03:47:49;27.20;;;14.67;;
18661;SDS011;61528;49.456;11.098;2023-03-03T03:50:16;23.27;;;14.80;;
18661;SDS011;61528;49.456;11.098;2023-03-03T03:52:42;26.87;;;15.40;;
18661;SDS011;61528;49.456;11.098;2023-03-03T03:55:08;23.07;;;13.37;;
18661;SDS011;61528;49.456;11.098;2023-03-03T03:57:35;22.10;;;12.63;;
18661;SDS011;61528;49.456;11.098;2023-03-03T04:00:01;25.30;;;13.43;;
18661;SDS011;61528;49.456;11.098;2023-03-03T04:02:27;19.97;;;12.67;;
18661;SDS011;61528;49.456;11.098;2023-03-03T04:04:54;23.77;;;13.27;;
18661;SDS011;61528;49.456;11.098;2023-03-03T04:07:20;20.07;;;12.47;;
18661;SDS011;61528;49.456;11.098;2023-03-03T04:09:47;21.10;;;12.67;;
18661;SDS011;61528;49.456;11.098;2023-03-03T04:12:13;20.70;;;12.03;;
18661;SDS011;61528;49.456;11.098;2023-03-03T04:14:40;21.63;;;13.73;;
18661;SDS011;61528;49.456;11.098;2023-03-03T04:17:06;21.77;;;13.23;;
18661;SDS011;61528;49.456;11.098;2023-03-03T04:19:32;21.63;;;12.73;;
18661;SDS011;61528;49.456;11.098;2023-03-03T04:21:59;24.87;;;12.67;;
18661;SDS011;61528;49.456;11.098;2023-03-03T04:24:25;23.47;;;13.40;;
18661;SDS011;61528;49.456;11.098;2023-03-03T04:26:51;26.27;;;13.97;;
18661;SDS011;61528;49.456;11.098;2023-03-03T04:29:18;22.30;;;13.10;;
18661;SDS011;61528;49.456;11.098;2023-03-03T04:31:44;23.10;;;13.37;;
18661;SDS011;61528;49.456;11.098;2023-03-03T04:34:10;26.13;;;14.53;;
18661;SDS011;61528;49.456;11.098;2023-03-03T04:36:37;26.93;;;14.57;;
18661;SDS011;61528;49.456;11.098;2023-03-03T04:39:03;30.17;;;15.40;;
18661;SDS011;61528;49.456;11.098;2023-03-03T04:41:29;27.27;;;16.40;;
18661;SDS011;61528;49.456;11.098;2023-03-03T04:43:55;27.10;;;16.23;;
18661;SDS011;61528;49.456;11.098;2023-03-03T04:46:22;27.50;;;16.50;;
18661;SDS011;61528;49.456;11.098;2023-03-03T04:48:51;28.47;;;16.20;;
18661;SDS011;61528;49.456;11.098;2023-03-03T04:51:17;25.93;;;15.50;;
18661;SDS011;61528;49.456;11.098;2023-03-03T04:53:43;28.87;;;15.90;;
18661;SDS011;61528;49.456;11.098;2023-03-03T04:56:10;29.10;;;15.60;;
18661;SDS011;61528;49.456;11.098;2023-03-03T04:58:36;26.63;;;15.53;;
18661;SDS011;61528;49.456;11.098;2023-03-03T05:01:02;27.97;;;15.23;;
18661;SDS011;61528;49.456;11.098;2023-03-03T05:03:28;28.23;;;14.73;;
18661;SDS011;61528;49.456;11.098;2023-03-03T05:05:55;27.70;;;16.27;;
18661;SDS011;61528;49.456;11.098;2023-03-03T05:08:21;35.40;;;18.40;;
18661;SDS011;61528;49.456;11.098;2023-03-03T05:10:53;34.13;;;18.00;;
18661;SDS011;61528;49.456;11.098;2023-03-03T05:13:20;34.53;;;17.90;;
18661;SDS011;61528;49.456;11.098;2023-03-03T05:15:52;30.33;;;16.30;;
18661;SDS011;61528;49.456;11.098;2023-03-03T05:18:22;27.00;;;14.73;;
18661;SDS011;61528;49.456;11.098;2023-03-03T05:20:49;25.33;;;14.23;;
18661;SDS011;61528;49.456;11.098;2023-03-03T05:23:16;25.53;;;14.27;;
18661;SDS011;61528;49.456;11.098;2023-03-03T05:25:42;25.40;;;14.33;;
18661;SDS011;61528;49.456;11.098;2023-03-03T05:28:09;26.67;;;14.93;;
18661;SDS011;61528;49.456;11.098;2023-03-03T05:30:36;24.90;;;13.83;;
18661;SDS011;61528;49.456;11.098;2023-03-03T05:33:03;26.83;;;13.60;;
18661;SDS011;61528;49.456;11.098;2023-03-03T05:35:29;23.33;;;14.13;;
18661;SDS011;61528;49.456;11.098;2023-03-03T05:37:56;26.03;;;14.23;;
18661;SDS011;61528;49.456;11.098;2023-03-03T05:40:26;23.37;;;14.10;;
18661;SDS011;61528;49.456;11.098;2023-03-03T05:42:52;24.77;;;14.23;;
18661;SDS011;61528;49.456;11.098;2023-03-03T05:45:18;23.90;;;13.60;;
18661;SDS011;61528;49.456;11.098;2023-03-03T05:47:46;25.37;;;14.50;;
18661;SDS011;61528;49.456;11.098;2023-03-03T05:50:12;25.43;;;14.20;;
18661;SDS011;61528;49.456;11.098;2023-03-03T05:52:39;25.70;;;14.27;;
18661;SDS011;61528;49.456;11.098;2023-03-03T05:55:05;24.70;;;14.40;;
18661;SDS011;61528;49.456;11.098;2023-03-03T05:57:32;22.70;;;14.00;;
18661;SDS011;61528;49.456;11.098;2023-03-03T06:00:00;25.03;;;14.97;;
18661;SDS011;61528;49.456;11.098;2023-03-03T06:02:27;25.97;;;14.73;;
18661;SDS011;61528;49.456;11.098;2023-03-03T06:04:54;25.57;;;14.60;;
18661;SDS011;61528;49.456;11.098;2023-03-03T06:07:20;26.33;;;14.87;;
18661;SDS011;61528;49.456;11.098;2023-03-03T06:09:46;24.33;;;14.83;;
18661;SDS011;61528;49.456;11.098;2023-03-03T06:12:13;29.00;;;15.20;;
18661;SDS011;61528;49.456;11.098;2023-03-03T06:14:39;27.37;;;15.40;;
18661;SDS011;61528;49.456;11.098;2023-03-03T06:17:05;27.27;;;15.10;;
18661;SDS011;61528;49.456;11.098;2023-03-03T06:19:31;25.23;;;14.10;;
18661;SDS011;61528;49.456;11.098;2023-03-03T06:21:58;30.20;;;17.63;;
18661;SDS011;61528;49.456;11.098;2023-03-03T06:24:24;25.57;;;15.33;;
18661;SDS011;61528;49.456;11.098;2023-03-03T06:26:55;28.77;;;15.27;;
18661;SDS011;61528;49.456;11.098;2023-03-03T06:29:24;30.17;;;15.67;;
18661;SDS011;61528;49.456;11.098;2023-03-03T06:31:50;29.03;;;15.53;;
18661;SDS011;61528;49.456;11.098;2023-03-03T06:34:17;27.13;;;15.27;;
18661;SDS011;61528;49.456;11.098;2023-03-03T06:36:43;27.63;;;15.23;;
18661;SDS011;61528;49.456;11.098;2023-03-03T06:39:09;24.93;;;14.33;;
18661;SDS011;61528;49.456;11.098;2023-03-03T06:41:36;25.93;;;15.80;;
18661;SDS011;61528;49.456;11.098;2023-03-03T06:44:03;26.70;;;15.40;;
18661;SDS011;61528;49.456;11.098;2023-03-03T06:46:29;26.77;;;16.13;;
18661;SDS011;61528;49.456;11.098;2023-03-03T06:48:55;29.53;;;16.33;;
18661;SDS011;61528;49.456;11.098;2023-03-03T06:51:23;26.90;;;15.47;;
18661;SDS011;61528;49.456;11.098;2023-03-03T06:53:56;32.87;;;16.13;;
18661;SDS011;61528;49.456;11.098;2023-03-03T06:56:23;29.33;;;15.77;;
18661;SDS011;61528;49.456;11.098;2023-03-03T06:58:53;30.73;;;16.23;;
18661;SDS011;61528;49.456;11.098;2023-03-03T07:01:22;27.40;;;16.70;;
18661;SDS011;61528;49.456;11.098;2023-03-03T07:03:48;31.97;;;17.47;;
18661;SDS011;61528;49.456;11.098;2023-03-03T07:06:24;29.43;;;16.43;;
18661;SDS011;61528;49.456;11.098;2023-03-03T07:08:52;34.10;;;17.13;;
18661;SDS011;61528;49.456;11.098;2023-03-03T07:11:21;32.90;;;17.70;;
18661;SDS011;61528;49.456;11.098;2023-03-03T07:13:54;30.33;;;16.33;;
18661;SDS011;61528;49.456;11.098;2023-03-03T07:16:25;30.17;;;17.27;;
18661;SDS011;61528;49.456;11.098;2023-03-03T07:19:01;32.30;;;17.67;;
18661;SDS011;61528;49.456;11.098;2023-03-03T07:21:33;30.40;;;17.10;;
18661;SDS011;61528;49.456;11.098;2023-03-03T07:24:00;31.70;;;17.97;;
18661;SDS011;61528;49.456;11.098;2023-03-03T07:26:33;46.57;;;23.13;;
18661;SDS011;61528;49.456;11.098;2023-03-03T07:29:14;40.43;;;22.30;;
18661;SDS011;61528;49.456;11.098;2023-03-03T07:31:41;43.10;;;23.80;;
18661;SDS011;61528;49.456;11.098;2023-03-03T07:34:24;49.10;;;27.83;;
18661;SDS011;61528;49.456;11.098;2023-03-03T07:36:56;40.17;;;22.03;;
18661;SDS011;61528;49.456;11.098;2023-03-03T07:42:19;43.33;;;22.77;;
18661;SDS011;61528;49.456;11.098;2023-03-03T07:44:43;51.00;;;26.80;;
18661;SDS011;61528;49.456;11.098;2023-03-03T07:49:39;44.53;;;23.47;;
18661;SDS011;61528;49.456;11.098;2023-03-03T07:55:17;36.07;;;20.07;;
18661;SDS011;61528;49.456;11.098;2023-03-03T07:57:45;52.80;;;26.93;;
18661;SDS011;61528;49.456;11.098;2023-03-03T08:02:47;52.37;;;27.07;;
18661;SDS011;61528;49.456;11.098;2023-03-03T08:07:50;116.97;;;54.07;;
18661;SDS011;61528;49.456;11.098;2023-03-03T08:10:28;48.53;;;27.17;;
18661;SDS011;61528;49.456;11.098;2023-03-03T08:12:56;41.60;;;23.73;;
18661;SDS011;61528;49.456;11.098;2023-03-03T08:15:24;37.53;;;20.07;;
18661;SDS011;61528;49.456;11.098;2023-03-03T08:17:51;37.37;;;19.27;;
18661;SDS011;61528;49.456;11.098;2023-03-03T08:22:54;39.77;;;19.47;;
18661;SDS011;61528;49.456;11.098;2023-03-03T08:25:20;38.20;;;19.90;;
18661;SDS011;61528;49.456;11.098;2023-03-03T08:27:46;33.50;;;18.57;;
18661;SDS011;61528;49.456;11.098;2023-03-03T08:30:12;39.37;;;18.83;;
18661;SDS011;61528;49.456;11.098;2023-03-03T08:32:39;44.80;;;24.87;;
18661;SDS011;61528;49.456;11.098;2023-03-03T08:35:05;39.83;;;23.20;;
18661;SDS011;61528;49.456;11.098;2023-03-03T08:37:31;35.97;;;20.40;;
18661;SDS011;61528;49.456;11.098;2023-03-03T08:39:57;31.23;;;17.50;;
18661;SDS011;61528;49.456;11.098;2023-03-03T08:42:24;35.97;;;19.40;;
18661;SDS011;61528;49.456;11.098;2023-03-03T08:44:50;34.83;;;19.73;;
18661;SDS011;61528;49.456;11.098;2023-03-03T08:47:16;36.03;;;19.03;;
18661;SDS011;61528;49.456;11.098;2023-03-03T08:49:42;34.33;;;19.63;;
18661;SDS011;61528;49.456;11.098;2023-03-03T08:52:08;32.63;;;19.00;;
18661;SDS011;61528;49.456;11.098;2023-03-03T08:54:35;36.10;;;19.57;;
18661;SDS011;61528;49.456;11.098;2023-03-03T08:57:01;35.43;;;19.47;;
18661;SDS011;61528;49.456;11.098;2023-03-03T08:59:27;42.73;;;19.80;;
18661;SDS011;61528;49.456;11.098;2023-03-03T09:01:54;34.57;;;19.70;;
18661;SDS011;61528;49.456;11.098;2023-03-03T09:04:20;36.67;;;20.57;;
18661;SDS011;61528;49.456;11.098;2023-03-03T09:06:46;32.60;;;18.73;;
18661;SDS011;61528;49.456;11.098;2023-03-03T09:09:12;33.97;;;18.63;;
18661;SDS011;61528;49.456;11.098;2023-03-03T09:11:38;32.23;;;18.00;;
18661;SDS011;61528;49.456;11.098;2023-03-03T09:14:11;34.93;;;19.90;;
18661;SDS011;61528;49.456;11.098;2023-03-03T09:16:39;39.27;;;23.67;;
18661;SDS011;61528;49.456;11.098;2023-03-03T09:19:15;31.63;;;18.30;;
18661;SDS011;61528;49.456;11.098;2023-03-03T09:21:43;34.83;;;18.83;;
18661;SDS011;61528;49.456;11.098;2023-03-03T09:24:16;36.27;;;21.37;;
18661;SDS011;61528;49.456;11.098;2023-03-03T09:26:46;39.10;;;20.80;;
18661;SDS011;61528;49.456;11.098;2023-03-03T09:36:53;34.23;;;18.63;;
18661;SDS011;61528;49.456;11.098;2023-03-03T09:39:24;37.03;;;19.73;;
18661;SDS011;61528;49.456;11.098;2023-03-03T09:54:52;30.33;;;17.87;;
18661;SDS011;61528;49.456;11.098;2023-03-03T09:57:29;31.77;;;18.13;;
18661;SDS011;61528;49.456;11.098;2023-03-03T10:07:52;31.27;;;18.80;;
18661;SDS011;61528;49.456;11.098;2023-03-03T10:10:27;32.00;;;17.47;;
18661;SDS011;61528;49.456;11.098;2023-03-03T10:19:09;29.53;;;17.60;;
18661;SDS011;61528;49.456;11.098;2023-03-03T10:21:16;29.50;;;17.07;;
18661;SDS011;61528;49.456;11.098;2023-03-03T10:29:02;30.07;;;17.13;;
18661;SDS011;61528;49.456;11.098;2023-03-03T10:39:37;29.60;;;17.90;;
18661;SDS011;61528;49.456;11.098;2023-03-03T10:42:30;33.43;;;18.70;;
18661;SDS011;61528;49.456;11.098;2023-03-03T10:50:19;30.03;;;17.03;;
18661;SDS011;61528;49.456;11.098;2023-03-03T10:55:21;34.60;;;20.63;;
18661;SDS011;61528;49.456;11.098;2023-03-03T11:00:23;33.83;;;20.70;;
18661;SDS011;61528;49.456;11.098;2023-03-03T11:05:28;29.10;;;18.17;;
18661;SDS011;61528;49.456;11.098;2023-03-03T11:19:10;26.70;;;16.33;;
18661;SDS011;61528;49.456;11.098;2023-03-03T11:31:56;25.73;;;16.33;;
18661;SDS011;61528;49.456;11.098;2023-03-03T11:34:33;28.00;;;15.37;;
18661;SDS011;61528;49.456;11.098;2023-03-03T11:37:04;24.97;;;15.47;;
18661;SDS011;61528;49.456;11.098;2023-03-03T11:39:34;27.57;;;16.67;;
18661;SDS011;61528;49.456;11.098;2023-03-03T11:45:28;23.67;;;13.47;;
18661;SDS011;61528;49.456;11.098;2023-03-03T11:47:31;23.00;;;14.60;;
18661;SDS011;61528;49.456;11.098;2023-03-03T11:50:04;20.27;;;13.73;;
18661;SDS011;61528;49.456;11.098;2023-03-03T11:52:37;25.80;;;13.53;;
18661;SDS011;61528;49.456;11.098;2023-03-03T11:55:12;21.60;;;13.20;;
18661;SDS011;61528;49.456;11.098;2023-03-03T12:00:18;19.73;;;13.87;;
18661;SDS011;61528;49.456;11.098;2023-03-03T12:10:33;21.03;;;15.67;;
18661;SDS011;61528;49.456;11.098;2023-03-03T12:13:02;22.60;;;15.00;;
18661;SDS011;61528;49.456;11.098;2023-03-03T12:15:38;22.77;;;14.77;;
18661;SDS011;61528;49.456;11.098;2023-03-03T12:28:36;18.17;;;13.17;;
18661;SDS011;61528;49.456;11.098;2023-03-03T12:39:07;17.23;;;15.17;;
18661;SDS011;61528;49.456;11.098;2023-03-03T12:46:35;19.43;;;15.00;;
18661;SDS011;61528;49.456;11.098;2023-03-03T12:49:05;19.77;;;14.80;;
18661;SDS011;61528;49.456;11.098;2023-03-03T12:52:06;16.77;;;14.33;;
18661;SDS011;61528;49.456;11.098;2023-03-03T12:59:30;17.27;;;14.53;;
18661;SDS011;61528;49.456;11.098;2023-03-03T13:02:24;18.57;;;15.50;;
18661;SDS011;61528;49.456;11.098;2023-03-03T13:12:47;16.27;;;13.97;;
18661;SDS011;61528;49.456;11.098;2023-03-03T13:15:23;16.80;;;15.00;;
18661;SDS011;61528;49.456;11.098;2023-03-03T13:23:07;17.23;;;14.23;;
18661;SDS011;61528;49.456;11.098;2023-03-03T13:28:33;19.03;;;15.87;;
18661;SDS011;61528;49.456;11.098;2023-03-03T13:31:01;19.20;;;15.53;;
18661;SDS011;61528;49.456;11.098;2023-03-03T13:33:29;17.13;;;13.40;;
18661;SDS011;61528;49.456;11.098;2023-03-03T13:38:24;18.10;;;13.90;;
18661;SDS011;61528;49.456;11.098;2023-03-03T13:40:57;15.93;;;12.50;;
18661;SDS011;61528;49.456;11.098;2023-03-03T13:46:03;13.73;;;12.23;;
18661;SDS011;61528;49.456;11.098;2023-03-03T13:51:25;16.70;;;12.90;;
18661;SDS011;61528;49.456;11.098;2023-03-03T14:10:09;14.43;;;10.87;;
18661;SDS011;61528;49.456;11.098;2023-03-03T14:17:44;14.47;;;11.50;;
18661;SDS011;61528;49.456;11.098;2023-03-03T14:20:22;13.60;;;10.37;;
18661;SDS011;61528;49.456;11.098;2023-03-03T14:23:03;15.33;;;11.30;;
18661;SDS011;61528;49.456;11.098;2023-03-03T14:26:29;14.77;;;11.30;;
18661;SDS011;61528;49.456;11.098;2023-03-03T14:28:26;13.37;;;10.77;;
18661;SDS011;61528;49.456;11.098;2023-03-03T14:30:56;13.97;;;10.87;;
18661;SDS011;61528;49.456;11.098;2023-03-03T14:33:27;13.43;;;10.97;;
18661;SDS011;61528;49.456;11.098;2023-03-03T14:38:45;11.53;;;9.20;;
18661;SDS011;61528;49.456;11.098;2023-03-03T14:43:37;12.37;;;10.00;;
18661;SDS011;61528;49.456;11.098;2023-03-03T14:48:49;14.57;;;10.30;;
18661;SDS011;61528;49.456;11.098;2023-03-03T14:51:29;13.00;;;9.53;;
18661;SDS011;61528;49.456;11.098;2023-03-03T14:54:00;10.90;;;8.60;;
18661;SDS011;61528;49.456;11.098;2023-03-03T15:01:37;15.77;;;9.70;;
18661;SDS011;61528;49.456;11.098;2023-03-03T15:06:40;12.87;;;9.80;;
18661;SDS011;61528;49.456;11.098;2023-03-03T15:09:49;13.03;;;9.67;;
18661;SDS011;61528;49.456;11.098;2023-03-03T15:12:18;13.97;;;9.70;;
18661;SDS011;61528;49.456;11.098;2023-03-03T15:14:46;11.93;;;9.53;;
18661;SDS011;61528;49.456;11.098;2023-03-03T15:17:23;14.23;;;9.43;;
18661;SDS011;61528;49.456;11.098;2023-03-03T15:24:57;12.60;;;9.87;;
18661;SDS011;61528;49.456;11.098;2023-03-03T15:27:32;12.87;;;9.67;;
18661;SDS011;61528;49.456;11.098;2023-03-03T15:30:02;14.53;;;10.43;;
18661;SDS011;61528;49.456;11.098;2023-03-03T15:37:41;14.67;;;10.03;;
18661;SDS011;61528;49.456;11.098;2023-03-03T15:43:02;27.50;;;19.97;;
18661;SDS011;61528;49.456;11.098;2023-03-03T15:48:24;28.17;;;20.87;;
18661;SDS011;61528;49.456;11.098;2023-03-03T15:59:44;14.47;;;10.00;;
18661;SDS011;61528;49.456;11.098;2023-03-03T16:02:19;15.87;;;10.60;;
18661;SDS011;61528;49.456;11.098;2023-03-03T16:10:42;14.00;;;9.83;;
18661;SDS011;61528;49.456;11.098;2023-03-03T16:18:44;13.97;;;9.17;;
18661;SDS011;61528;49.456;11.098;2023-03-03T16:23:45;13.53;;;9.23;;
18661;SDS011;61528;49.456;11.098;2023-03-03T16:38:59;16.10;;;11.30;;
18661;SDS011;61528;49.456;11.098;2023-03-03T16:44:48;17.03;;;12.33;;
18661;SDS011;61528;49.456;11.098;2023-03-03T16:58:33;13.70;;;8.83;;
18661;SDS011;61528;49.456;11.098;2023-03-03T17:11:54;12.10;;;7.87;;
18661;SDS011;61528;49.456;11.098;2023-03-03T17:17:19;13.07;;;8.13;;
18661;SDS011;61528;49.456;11.098;2023-03-03T17:19:54;13.67;;;8.27;;
18661;SDS011;61528;49.456;11.098;2023-03-03T17:30:16;14.97;;;9.37;;
18661;SDS011;61528;49.456;11.098;2023-03-03T17:33:08;10.17;;;6.80;;
18661;SDS011;61528;49.456;11.098;2023-03-03T17:40:57;10.80;;;6.67;;
18661;SDS011;61528;49.456;11.098;2023-03-03T17:43:39;11.77;;;6.80;;
18661;SDS011;61528;49.456;11.098;2023-03-03T17:46:14;13.37;;;7.77;;
18661;SDS011;61528;49.456;11.098;2023-03-03T18:12:09;9.60;;;6.63;;
18661;SDS011;61528;49.456;11.098;2023-03-03T18:19:57;10.77;;;7.27;;
18661;SDS011;61528;49.456;11.098;2023-03-03T18:22:45;9.10;;;6.60;;
18661;SDS011;61528;49.456;11.098;2023-03-03T18:25:22;11.67;;;6.60;;
18661;SDS011;61528;49.456;11.098;2023-03-03T18:30:25;10.10;;;6.07;;
18661;SDS011;61528;49.456;11.098;2023-03-03T18:35:22;18.00;;;11.73;;
18661;SDS011;61528;49.456;11.098;2023-03-03T18:37:49;14.53;;;10.67;;
18661;SDS011;61528;49.456;11.098;2023-03-03T18:40:26;12.80;;;10.10;;
18661;SDS011;61528;49.456;11.098;2023-03-03T18:42:53;15.13;;;11.13;;
18661;SDS011;61528;49.456;11.098;2023-03-03T18:50:48;9.73;;;6.97;;
18661;SDS011;61528;49.456;11.098;2023-03-03T18:55:43;9.90;;;6.73;;
18661;SDS011;61528;49.456;11.098;2023-03-03T19:00:44;9.70;;;5.77;;
18661;SDS011;61528;49.456;11.098;2023-03-03T19:03:24;10.97;;;7.07;;
18661;SDS011;61528;49.456;11.098;2023-03-03T19:05:51;10.80;;;6.70;;
18661;SDS011;61528;49.456;11.098;2023-03-03T19:11:26;10.60;;;6.83;;
18661;SDS011;61528;49.456;11.098;2023-03-03T19:14:06;9.13;;;5.97;;
18661;SDS011;61528;49.456;11.098;2023-03-03T19:16:36;9.00;;;6.20;;
18661;SDS011;61528;49.456;11.098;2023-03-03T19:19:06;11.03;;;5.77;;
18661;SDS011;61528;49.456;11.098;2023-03-03T19:21:34;8.30;;;5.83;;
18661;SDS011;61528;49.456;11.098;2023-03-03T19:24:01;9.97;;;6.50;;
18661;SDS011;61528;49.456;11.098;2023-03-03T19:31:37;11.23;;;6.80;;
18661;SDS011;61528;49.456;11.098;2023-03-03T19:47:50;14.73;;;8.27;;
18661;SDS011;61528;49.456;11.098;2023-03-03T19:50:24;12.97;;;8.10;;
18661;SDS011;61528;49.456;11.098;2023-03-03T19:53:17;12.80;;;7.90;;
18661;SDS011;61528;49.456;11.098;2023-03-03T20:00:45;15.47;;;7.80;;
18661;SDS011;61528;49.456;11.098;2023-03-03T20:06:06;11.80;;;7.20;;
18661;SDS011;61528;49.456;11.098;2023-03-03T20:11:28;13.80;;;9.10;;
18661;SDS011;61528;49.456;11.098;2023-03-03T20:14:07;14.77;;;9.60;;
18661;SDS011;61528;49.456;11.098;2023-03-03T20:16:38;16.10;;;10.70;;
18661;SDS011;61528;49.456;11.098;2023-03-03T20:27:33;18.97;;;12.27;;
18661;SDS011;61528;49.456;11.098;2023-03-03T20:30:05;14.00;;;9.63;;
18661;SDS011;61528;49.456;11.098;2023-03-03T20:40:09;13.93;;;8.87;;
18661;SDS011;61528;49.456;11.098;2023-03-03T20:47:46;12.87;;;8.53;;
18661;SDS011;61528;49.456;11.098;2023-03-03T20:58:33;16.23;;;9.77;;
18661;SDS011;61528;49.456;11.098;2023-03-03T21:01:13;15.73;;;9.63;;
18661;SDS011;61528;49.456;11.098;2023-03-03T21:03:40;19.33;;;10.53;;
18661;SDS011;61528;49.456;11.098;2023-03-03T21:06:15;17.97;;;10.80;;
18661;SDS011;61528;49.456;11.098;2023-03-03T21:11:08;16.13;;;10.67;;
18661;SDS011;61528;49.456;11.098;2023-03-03T21:16:27;17.13;;;10.30;;
18661;SDS011;61528;49.456;11.098;2023-03-03T21:18:59;16.43;;;9.60;;
18661;SDS011;61528;49.456;11.098;2023-03-03T21:21:27;17.80;;;10.53;;
18661;SDS011;61528;49.456;11.098;2023-03-03T21:23:54;16.23;;;10.20;;
18661;SDS011;61528;49.456;11.098;2023-03-03T21:29:06;18.03;;;9.80;;
18661;SDS011;61528;49.456;11.098;2023-03-03T21:31:45;20.43;;;10.90;;
18661;SDS011;61528;49.456;11.098;2023-03-03T21:36:50;19.03;;;10.37;;
18661;SDS011;61528;49.456;11.098;2023-03-03T21:41:57;17.43;;;10.70;;
18661;SDS011;61528;49.456;11.098;2023-03-03T21:46:55;20.47;;;11.10;;